sensor_id;sensor_type;location;lat;lon;timestamp;P1;durP1;ratioP1;P2;durP2;ratioP2
84329;SDS011;74510;42.676;23.432;2024-01-06T00:00:29;59.55;;;34.03;;
84329;SDS011;74510;42.676;23.432;2024-01-06T00:02:55;81.20;;;41.75;;
84329;SDS011;74510;42.676;23.432;2024-01-06T00:05:20;72.32;;;38.95;;
84329;SDS011;74510;42.676;23.432;2024-01-06T00:07:45;93.25;;;45.40;;
84329;SDS011;74510;42.676;23.432;2024-01-06T00:10:11;82.50;;;43.60;;
84329;SDS011;74510;42.676;23.432;2024-01-06T00:12:36;67.28;;;35.67;;
84329;SDS011;74510;42.676;23.432;2024-01-06T00:15:02;60.85;;;32.25;;
84329;SDS011;74510;42.676;23.432;2024-01-06T00:17:28;68.10;;;33.33;;
84329;SDS011;74510;42.676;23.432;2024-01-06T00:19:54;58.33;;;29.02;;
84329;SDS011;74510;42.676;23.432;2024-01-06T00:22:20;78.28;;;40.00;;
84329;SDS011;74510;42.676;23.432;2024-01-06T00:24:45;80.60;;;43.78;;
84329;SDS011;74510;42.676;23.432;2024-01-06T00:27:11;81.82;;;43.47;;
84329;SDS011;74510;42.676;23.432;2024-01-06T00:29:37;77.07;;;40.00;;
84329;SDS011;74510;42.676;23.432;2024-01-06T00:32:02;73.53;;;41.53;;
84329;SDS011;74510;42.676;23.432;2024-01-06T00:34:28;75.90;;;41.53;;
84329;SDS011;74510;42.676;23.432;2024-01-06T00:36:53;84.47;;;42.58;;
84329;SDS011;74510;42.676;23.432;2024-01-06T00:39:19;78.05;;;41.30;;
84329;SDS011;74510;42.676;23.432;2024-01-06T00:41:45;79.38;;;45.38;;
84329;SDS011;74510;42.676;23.432;2024-01-06T00:44:11;91.55;;;47.75;;
84329;SDS011;74510;42.676;23.432;2024-01-06T00:46:36;88.50;;;45.78;;
84329;SDS011;74510;42.676;23.432;2024-01-06T00:49:02;82.35;;;46.15;;
84329;SDS011;74510;42.676;23.432;2024-01-06T00:51:27;94.35;;;49.25;;
84329;SDS011;74510;42.676;23.432;2024-01-06T00:53:53;84.22;;;47.00;;
84329;SDS011;74510;42.676;23.432;2024-01-06T00:56:18;84.10;;;45.08;;
84329;SDS011;74510;42.676;23.432;2024-01-06T00:58:44;84.35;;;45.47;;
84329;SDS011;74510;42.676;23.432;2024-01-06T01:01:09;91.25;;;49.45;;
84329;SDS011;74510;42.676;23.432;2024-01-06T01:03:34;84.85;;;49.70;;
84329;SDS011;74510;42.676;23.432;2024-01-06T01:06:00;84.07;;;47.13;;
84329;SDS011;74510;42.676;23.432;2024-01-06T01:08:25;96.38;;;51.47;;
84329;SDS011;74510;42.676;23.432;2024-01-06T01:10:51;99.95;;;51.38;;
84329;SDS011;74510;42.676;23.432;2024-01-06T01:13:16;99.78;;;53.38;;
84329;SDS011;74510;42.676;23.432;2024-01-06T01:15:41;95.00;;;50.45;;
84329;SDS011;74510;42.676;23.432;2024-01-06T01:18:07;104.47;;;51.28;;
84329;SDS011;74510;42.676;23.432;2024-01-06T01:20:32;97.68;;;51.50;;
84329;SDS011;74510;42.676;23.432;2024-01-06T01:22:58;100.53;;;50.08;;
84329;SDS011;74510;42.676;23.432;2024-01-06T01:25:23;104.15;;;55.42;;
84329;SDS011;74510;42.676;23.432;2024-01-06T01:27:48;118.53;;;63.17;;
84329;SDS011;74510;42.676;23.432;2024-01-06T01:30:14;114.10;;;58.67;;
84329;SDS011;74510;42.676;23.432;2024-01-06T01:32:39;113.85;;;60.45;;
84329;SDS011;74510;42.676;23.432;2024-01-06T01:35:05;118.40;;;56.22;;
84329;SDS011;74510;42.676;23.432;2024-01-06T01:37:30;105.40;;;54.72;;
84329;SDS011;74510;42.676;23.432;2024-01-06T01:39:56;110.43;;;58.38;;
84329;SDS011;74510;42.676;23.432;2024-01-06T01:42:22;113.22;;;59.33;;
84329;SDS011;74510;42.676;23.432;2024-01-06T01:44:47;111.75;;;58.28;;
84329;SDS011;74510;42.676;23.432;2024-01-06T01:47:13;112.22;;;59.72;;
84329;SDS011;74510;42.676;23.432;2024-01-06T01:49:43;113.35;;;59.45;;
84329;SDS011;74510;42.676;23.432;2024-01-06T01:52:12;123.65;;;59.83;;
84329;SDS011;74510;42.676;23.432;2024-01-06T01:54:39;111.93;;;58.88;;
84329;SDS011;74510;42.676;23.432;2024-01-06T01:57:06;108.18;;;56.75;;
84329;SDS011;74510;42.676;23.432;2024-01-06T01:59:31;108.22;;;58.40;;
84329;SDS011;74510;42.676;23.432;2024-01-06T02:01:57;108.65;;;56.00;;
84329;SDS011;74510;42.676;23.432;2024-01-06T02:04:23;107.47;;;52.90;;
84329;SDS011;74510;42.676;23.432;2024-01-06T02:06:48;109.32;;;57.25;;
84329;SDS011;74510;42.676;23.432;2024-01-06T02:09:14;89.10;;;50.70;;
84329;SDS011;74510;42.676;23.432;2024-01-06T02:11:39;85.28;;;49.20;;
84329;SDS011;74510;42.676;23.432;2024-01-06T02:14:05;93.55;;;46.53;;
84329;SDS011;74510;42.676;23.432;2024-01-06T02:16:30;88.47;;;47.60;;
84329;SDS011;74510;42.676;23.432;2024-01-06T02:18:55;88.63;;;48.17;;
84329;SDS011;74510;42.676;23.432;2024-01-06T02:21:23;83.38;;;45.13;;
84329;SDS011;74510;42.676;23.432;2024-01-06T02:23:48;88.78;;;46.47;;
84329;SDS011;74510;42.676;23.432;2024-01-06T02:26:14;81.65;;;43.28;;
84329;SDS011;74510;42.676;23.432;2024-01-06T02:28:40;77.35;;;42.42;;
84329;SDS011;74510;42.676;23.432;2024-01-06T02:31:05;91.15;;;45.50;;
84329;SDS011;74510;42.676;23.432;2024-01-06T02:33:31;77.47;;;42.63;;
84329;SDS011;74510;42.676;23.432;2024-01-06T02:35:56;71.00;;;38.28;;
84329;SDS011;74510;42.676;23.432;2024-01-06T02:38:22;72.85;;;37.47;;
84329;SDS011;74510;42.676;23.432;2024-01-06T02:40:47;78.35;;;37.38;;
84329;SDS011;74510;42.676;23.432;2024-01-06T02:43:13;70.85;;;35.97;;
84329;SDS011;74510;42.676;23.432;2024-01-06T02:45:38;63.10;;;34.92;;
84329;SDS011;74510;42.676;23.432;2024-01-06T02:48:04;60.60;;;34.70;;
84329;SDS011;74510;42.676;23.432;2024-01-06T02:50:29;52.95;;;29.60;;
84329;SDS011;74510;42.676;23.432;2024-01-06T02:52:55;52.30;;;27.83;;
84329;SDS011;74510;42.676;23.432;2024-01-06T02:55:20;55.05;;;28.65;;
84329;SDS011;74510;42.676;23.432;2024-01-06T02:57:46;52.50;;;27.75;;
84329;SDS011;74510;42.676;23.432;2024-01-06T03:00:11;44.80;;;25.60;;
84329;SDS011;74510;42.676;23.432;2024-01-06T03:02:37;49.38;;;25.55;;
84329;SDS011;74510;42.676;23.432;2024-01-06T03:05:06;50.40;;;25.45;;
84329;SDS011;74510;42.676;23.432;2024-01-06T03:07:32;48.80;;;27.33;;
84329;SDS011;74510;42.676;23.432;2024-01-06T03:09:58;44.28;;;24.65;;
84329;SDS011;74510;42.676;23.432;2024-01-06T03:12:23;55.42;;;28.88;;
84329;SDS011;74510;42.676;23.432;2024-01-06T03:14:49;48.25;;;25.70;;
84329;SDS011;74510;42.676;23.432;2024-01-06T03:17:14;39.55;;;24.40;;
84329;SDS011;74510;42.676;23.432;2024-01-06T03:19:39;44.22;;;25.20;;
84329;SDS011;74510;42.676;23.432;2024-01-06T03:22:05;46.20;;;24.75;;
84329;SDS011;74510;42.676;23.432;2024-01-06T03:24:30;42.00;;;24.20;;
84329;SDS011;74510;42.676;23.432;2024-01-06T03:26:56;39.72;;;23.50;;
84329;SDS011;74510;42.676;23.432;2024-01-06T03:29:22;41.80;;;21.63;;
84329;SDS011;74510;42.676;23.432;2024-01-06T03:31:47;44.65;;;24.85;;
84329;SDS011;74510;42.676;23.432;2024-01-06T03:34:13;39.08;;;23.33;;
84329;SDS011;74510;42.676;23.432;2024-01-06T03:36:39;36.75;;;23.17;;
84329;SDS011;74510;42.676;23.432;2024-01-06T03:39:04;39.00;;;22.05;;
84329;SDS011;74510;42.676;23.432;2024-01-06T03:41:30;34.83;;;21.77;;
84329;SDS011;74510;42.676;23.432;2024-01-06T03:43:56;33.70;;;22.10;;
84329;SDS011;74510;42.676;23.432;2024-01-06T03:46:22;38.08;;;20.95;;
84329;SDS011;74510;42.676;23.432;2024-01-06T03:48:47;31.80;;;17.80;;
84329;SDS011;74510;42.676;23.432;2024-01-06T03:51:13;36.58;;;18.23;;
84329;SDS011;74510;42.676;23.432;2024-01-06T03:53:38;30.05;;;17.83;;
84329;SDS011;74510;42.676;23.432;2024-01-06T03:56:05;36.10;;;19.48;;
84329;SDS011;74510;42.676;23.432;2024-01-06T03:58:30;30.48;;;19.30;;
84329;SDS011;74510;42.676;23.432;2024-01-06T04:00:56;32.20;;;19.88;;
84329;SDS011;74510;42.676;23.432;2024-01-06T04:03:21;33.25;;;19.38;;
84329;SDS011;74510;42.676;23.432;2024-01-06T04:05:47;33.95;;;20.35;;
84329;SDS011;74510;42.676;23.432;2024-01-06T04:08:12;32.00;;;18.50;;
84329;SDS011;74510;42.676;23.432;2024-01-06T04:10:37;25.17;;;16.17;;
84329;SDS011;74510;42.676;23.432;2024-01-06T04:13:03;31.52;;;17.17;;
84329;SDS011;74510;42.676;23.432;2024-01-06T04:15:29;25.40;;;15.57;;
84329;SDS011;74510;42.676;23.432;2024-01-06T04:17:54;24.70;;;14.05;;
84329;SDS011;74510;42.676;23.432;2024-01-06T04:20:20;33.03;;;16.48;;
84329;SDS011;74510;42.676;23.432;2024-01-06T04:22:45;40.80;;;18.23;;
84329;SDS011;74510;42.676;23.432;2024-01-06T04:25:11;33.72;;;16.27;;
84329;SDS011;74510;42.676;23.432;2024-01-06T04:27:36;24.92;;;13.43;;
84329;SDS011;74510;42.676;23.432;2024-01-06T04:30:02;18.60;;;12.25;;
84329;SDS011;74510;42.676;23.432;2024-01-06T04:32:27;23.15;;;12.48;;
84329;SDS011;74510;42.676;23.432;2024-01-06T04:34:53;17.10;;;9.98;;
84329;SDS011;74510;42.676;23.432;2024-01-06T04:37:18;15.70;;;10.20;;
84329;SDS011;74510;42.676;23.432;2024-01-06T04:39:43;20.63;;;11.88;;
84329;SDS011;74510;42.676;23.432;2024-01-06T04:42:09;14.82;;;10.63;;
84329;SDS011;74510;42.676;23.432;2024-01-06T04:44:34;15.40;;;10.15;;
84329;SDS011;74510;42.676;23.432;2024-01-06T04:47:00;18.45;;;10.18;;
84329;SDS011;74510;42.676;23.432;2024-01-06T04:49:25;17.88;;;11.65;;
84329;SDS011;74510;42.676;23.432;2024-01-06T04:51:50;17.70;;;10.25;;
84329;SDS011;74510;42.676;23.432;2024-01-06T04:54:16;16.02;;;10.02;;
84329;SDS011;74510;42.676;23.432;2024-01-06T04:56:41;11.88;;;7.95;;
84329;SDS011;74510;42.676;23.432;2024-01-06T04:59:07;10.55;;;6.90;;
84329;SDS011;74510;42.676;23.432;2024-01-06T05:01:32;14.57;;;7.47;;
84329;SDS011;74510;42.676;23.432;2024-01-06T05:03:58;14.63;;;8.18;;
84329;SDS011;74510;42.676;23.432;2024-01-06T05:06:24;20.80;;;8.75;;
84329;SDS011;74510;42.676;23.432;2024-01-06T05:08:50;16.75;;;12.10;;
84329;SDS011;74510;42.676;23.432;2024-01-06T05:11:15;16.95;;;11.75;;
84329;SDS011;74510;42.676;23.432;2024-01-06T05:13:41;23.92;;;18.38;;
84329;SDS011;74510;42.676;23.432;2024-01-06T05:16:07;20.05;;;10.25;;
84329;SDS011;74510;42.676;23.432;2024-01-06T05:18:33;14.60;;;10.82;;
84329;SDS011;74510;42.676;23.432;2024-01-06T05:20:58;18.30;;;10.35;;
84329;SDS011;74510;42.676;23.432;2024-01-06T05:23:24;17.75;;;11.88;;
84329;SDS011;74510;42.676;23.432;2024-01-06T05:25:49;26.00;;;16.00;;
84329;SDS011;74510;42.676;23.432;2024-01-06T05:28:14;25.73;;;15.05;;
84329;SDS011;74510;42.676;23.432;2024-01-06T05:30:40;23.70;;;13.00;;
84329;SDS011;74510;42.676;23.432;2024-01-06T05:33:05;21.85;;;12.82;;
84329;SDS011;74510;42.676;23.432;2024-01-06T05:35:34;23.73;;;12.70;;
84329;SDS011;74510;42.676;23.432;2024-01-06T05:38:00;21.27;;;12.32;;
84329;SDS011;74510;42.676;23.432;2024-01-06T05:40:25;24.25;;;15.40;;
84329;SDS011;74510;42.676;23.432;2024-01-06T05:42:51;18.83;;;11.65;;
84329;SDS011;74510;42.676;23.432;2024-01-06T05:45:20;25.10;;;13.50;;
84329;SDS011;74510;42.676;23.432;2024-01-06T05:47:46;27.33;;;14.45;;
84329;SDS011;74510;42.676;23.432;2024-01-06T05:50:11;26.73;;;14.73;;
84329;SDS011;74510;42.676;23.432;2024-01-06T05:52:40;29.40;;;15.38;;
84329;SDS011;74510;42.676;23.432;2024-01-06T05:55:06;27.70;;;16.83;;
84329;SDS011;74510;42.676;23.432;2024-01-06T05:57:31;25.48;;;14.98;;
84329;SDS011;74510;42.676;23.432;2024-01-06T05:59:57;21.08;;;12.13;;
84329;SDS011;74510;42.676;23.432;2024-01-06T06:02:22;25.98;;;14.82;;
84329;SDS011;74510;42.676;23.432;2024-01-06T06:04:48;29.42;;;15.52;;
84329;SDS011;74510;42.676;23.432;2024-01-06T06:07:13;23.35;;;14.18;;
84329;SDS011;74510;42.676;23.432;2024-01-06T06:09:39;38.63;;;20.50;;
84329;SDS011;74510;42.676;23.432;2024-01-06T06:12:05;39.67;;;22.33;;
84329;SDS011;74510;42.676;23.432;2024-01-06T06:14:31;26.17;;;16.40;;
84329;SDS011;74510;42.676;23.432;2024-01-06T06:16:56;22.70;;;12.57;;
84329;SDS011;74510;42.676;23.432;2024-01-06T06:19:22;19.63;;;11.55;;
84329;SDS011;74510;42.676;23.432;2024-01-06T06:21:47;36.35;;;21.48;;
84329;SDS011;74510;42.676;23.432;2024-01-06T06:24:12;21.38;;;12.18;;
84329;SDS011;74510;42.676;23.432;2024-01-06T06:26:38;18.73;;;12.40;;
84329;SDS011;74510;42.676;23.432;2024-01-06T06:29:04;19.88;;;11.70;;
84329;SDS011;74510;42.676;23.432;2024-01-06T06:31:29;20.83;;;11.45;;
84329;SDS011;74510;42.676;23.432;2024-01-06T06:33:54;28.58;;;16.17;;
84329;SDS011;74510;42.676;23.432;2024-01-06T06:36:20;28.60;;;14.35;;
84329;SDS011;74510;42.676;23.432;2024-01-06T06:38:45;32.05;;;18.73;;
84329;SDS011;74510;42.676;23.432;2024-01-06T06:41:11;34.55;;;19.02;;
84329;SDS011;74510;42.676;23.432;2024-01-06T06:43:36;32.97;;;20.38;;
84329;SDS011;74510;42.676;23.432;2024-01-06T06:46:02;25.25;;;13.23;;
84329;SDS011;74510;42.676;23.432;2024-01-06T06:48:27;22.33;;;12.25;;
84329;SDS011;74510;42.676;23.432;2024-01-06T06:50:53;25.25;;;14.95;;
84329;SDS011;74510;42.676;23.432;2024-01-06T06:53:18;25.23;;;13.88;;
84329;SDS011;74510;42.676;23.432;2024-01-06T06:55:46;25.33;;;17.35;;
84329;SDS011;74510;42.676;23.432;2024-01-06T06:58:12;29.65;;;14.15;;
84329;SDS011;74510;42.676;23.432;2024-01-06T07:00:38;24.10;;;14.88;;
84329;SDS011;74510;42.676;23.432;2024-01-06T07:03:04;25.88;;;15.27;;
84329;SDS011;74510;42.676;23.432;2024-01-06T07:05:29;25.73;;;13.90;;
84329;SDS011;74510;42.676;23.432;2024-01-06T07:07:55;34.90;;;18.17;;
84329;SDS011;74510;42.676;23.432;2024-01-06T07:10:20;69.75;;;45.78;;
84329;SDS011;74510;42.676;23.432;2024-01-06T07:12:45;38.00;;;25.58;;
84329;SDS011;74510;42.676;23.432;2024-01-06T07:15:11;39.15;;;24.73;;
84329;SDS011;74510;42.676;23.432;2024-01-06T07:17:37;33.60;;;20.55;;
84329;SDS011;74510;42.676;23.432;2024-01-06T07:20:03;35.28;;;18.75;;
84329;SDS011;74510;42.676;23.432;2024-01-06T07:22:32;35.13;;;21.48;;
84329;SDS011;74510;42.676;23.432;2024-01-06T07:24:59;64.68;;;43.72;;
84329;SDS011;74510;42.676;23.432;2024-01-06T07:27:25;51.10;;;33.42;;
84329;SDS011;74510;42.676;23.432;2024-01-06T07:29:50;46.92;;;32.03;;
84329;SDS011;74510;42.676;23.432;2024-01-06T07:32:16;56.92;;;35.55;;
84329;SDS011;74510;42.676;23.432;2024-01-06T07:34:41;56.20;;;33.17;;
84329;SDS011;74510;42.676;23.432;2024-01-06T07:37:08;49.85;;;27.65;;
84329;SDS011;74510;42.676;23.432;2024-01-06T07:39:33;56.47;;;33.22;;
84329;SDS011;74510;42.676;23.432;2024-01-06T07:41:59;51.88;;;28.90;;
84329;SDS011;74510;42.676;23.432;2024-01-06T07:44:24;63.58;;;33.58;;
84329;SDS011;74510;42.676;23.432;2024-01-06T07:46:50;60.03;;;31.67;;
84329;SDS011;74510;42.676;23.432;2024-01-06T07:49:16;119.65;;;54.03;;
84329;SDS011;74510;42.676;23.432;2024-01-06T07:51:42;64.20;;;35.22;;
84329;SDS011;74510;42.676;23.432;2024-01-06T07:54:07;51.70;;;28.27;;
84329;SDS011;74510;42.676;23.432;2024-01-06T07:56:34;60.53;;;31.40;;
84329;SDS011;74510;42.676;23.432;2024-01-06T07:58:59;75.50;;;33.58;;
84329;SDS011;74510;42.676;23.432;2024-01-06T08:01:25;65.45;;;32.22;;
84329;SDS011;74510;42.676;23.432;2024-01-06T08:03:51;47.35;;;23.58;;
84329;SDS011;74510;42.676;23.432;2024-01-06T08:06:16;59.63;;;27.80;;
84329;SDS011;74510;42.676;23.432;2024-01-06T08:08:42;60.78;;;28.25;;
84329;SDS011;74510;42.676;23.432;2024-01-06T08:11:07;40.90;;;19.20;;
84329;SDS011;74510;42.676;23.432;2024-01-06T08:13:33;35.67;;;18.30;;
84329;SDS011;74510;42.676;23.432;2024-01-06T08:15:58;29.50;;;16.17;;
84329;SDS011;74510;42.676;23.432;2024-01-06T08:18:24;27.42;;;16.20;;
84329;SDS011;74510;42.676;23.432;2024-01-06T08:20:49;31.77;;;19.13;;
84329;SDS011;74510;42.676;23.432;2024-01-06T08:23:15;21.70;;;13.07;;
84329;SDS011;74510;42.676;23.432;2024-01-06T08:25:41;28.02;;;15.05;;
84329;SDS011;74510;42.676;23.432;2024-01-06T08:28:06;27.83;;;16.90;;
84329;SDS011;74510;42.676;23.432;2024-01-06T08:30:32;32.75;;;19.45;;
84329;SDS011;74510;42.676;23.432;2024-01-06T08:32:57;29.55;;;18.30;;
84329;SDS011;74510;42.676;23.432;2024-01-06T08:35:24;36.63;;;20.85;;
84329;SDS011;74510;42.676;23.432;2024-01-06T08:37:50;39.35;;;22.95;;
84329;SDS011;74510;42.676;23.432;2024-01-06T08:40:15;38.58;;;20.45;;
84329;SDS011;74510;42.676;23.432;2024-01-06T08:42:41;45.58;;;25.92;;
84329;SDS011;74510;42.676;23.432;2024-01-06T08:45:06;56.28;;;28.75;;
84329;SDS011;74510;42.676;23.432;2024-01-06T08:47:32;48.30;;;24.23;;
84329;SDS011;74510;42.676;23.432;2024-01-06T08:49:57;32.40;;;20.33;;
84329;SDS011;74510;42.676;23.432;2024-01-06T08:52:23;31.55;;;20.38;;
84329;SDS011;74510;42.676;23.432;2024-01-06T08:54:48;29.98;;;18.88;;
84329;SDS011;74510;42.676;23.432;2024-01-06T08:57:14;30.00;;;17.38;;
84329;SDS011;74510;42.676;23.432;2024-01-06T08:59:40;30.67;;;20.20;;
84329;SDS011;74510;42.676;23.432;2024-01-06T09:02:05;41.70;;;23.08;;
84329;SDS011;74510;42.676;23.432;2024-01-06T09:04:31;42.45;;;23.25;;
84329;SDS011;74510;42.676;23.432;2024-01-06T09:06:56;43.35;;;24.45;;
84329;SDS011;74510;42.676;23.432;2024-01-06T09:09:22;36.63;;;24.30;;
84329;SDS011;74510;42.676;23.432;2024-01-06T09:11:48;40.78;;;27.77;;
84329;SDS011;74510;42.676;23.432;2024-01-06T09:14:14;60.67;;;33.10;;
84329;SDS011;74510;42.676;23.432;2024-01-06T09:16:39;44.47;;;25.23;;
84329;SDS011;74510;42.676;23.432;2024-01-06T09:19:05;39.45;;;21.20;;
84329;SDS011;74510;42.676;23.432;2024-01-06T09:21:30;50.00;;;27.33;;
84329;SDS011;74510;42.676;23.432;2024-01-06T09:23:56;58.17;;;31.48;;
84329;SDS011;74510;42.676;23.432;2024-01-06T09:26:21;59.47;;;31.45;;
84329;SDS011;74510;42.676;23.432;2024-01-06T09:28:47;59.83;;;30.90;;
84329;SDS011;74510;42.676;23.432;2024-01-06T09:31:12;42.03;;;24.23;;
84329;SDS011;74510;42.676;23.432;2024-01-06T09:33:39;40.28;;;23.70;;
84329;SDS011;74510;42.676;23.432;2024-01-06T09:36:05;52.95;;;30.45;;
84329;SDS011;74510;42.676;23.432;2024-01-06T09:38:30;61.40;;;32.92;;
84329;SDS011;74510;42.676;23.432;2024-01-06T09:40:56;50.95;;;28.13;;
84329;SDS011;74510;42.676;23.432;2024-01-06T09:43:23;43.63;;;22.40;;
84329;SDS011;74510;42.676;23.432;2024-01-06T09:45:51;38.75;;;23.05;;
84329;SDS011;74510;42.676;23.432;2024-01-06T09:48:22;40.83;;;19.65;;
84329;SDS011;74510;42.676;23.432;2024-01-06T09:50:55;35.38;;;20.13;;
84329;SDS011;74510;42.676;23.432;2024-01-06T09:53:22;30.48;;;16.67;;
84329;SDS011;74510;42.676;23.432;2024-01-06T09:55:54;28.35;;;17.77;;
84329;SDS011;74510;42.676;23.432;2024-01-06T09:58:21;35.22;;;17.30;;
84329;SDS011;74510;42.676;23.432;2024-01-06T10:00:48;26.85;;;15.65;;
84329;SDS011;74510;42.676;23.432;2024-01-06T10:03:14;28.02;;;16.20;;
84329;SDS011;74510;42.676;23.432;2024-01-06T10:05:40;23.73;;;13.90;;
84329;SDS011;74510;42.676;23.432;2024-01-06T10:08:05;26.35;;;15.68;;
84329;SDS011;74510;42.676;23.432;2024-01-06T10:10:32;27.83;;;15.98;;
84329;SDS011;74510;42.676;23.432;2024-01-06T10:12:59;18.95;;;11.80;;
84329;SDS011;74510;42.676;23.432;2024-01-06T10:15:24;16.50;;;10.57;;
84329;SDS011;74510;42.676;23.432;2024-01-06T10:17:52;12.65;;;9.38;;
84329;SDS011;74510;42.676;23.432;2024-01-06T10:20:19;13.80;;;8.23;;
84329;SDS011;74510;42.676;23.432;2024-01-06T10:22:46;12.02;;;8.38;;
84329;SDS011;74510;42.676;23.432;2024-01-06T10:25:11;16.20;;;10.05;;
84329;SDS011;74510;42.676;23.432;2024-01-06T10:27:38;14.23;;;9.00;;
84329;SDS011;74510;42.676;23.432;2024-01-06T10:30:04;15.45;;;9.82;;
84329;SDS011;74510;42.676;23.432;2024-01-06T10:32:33;15.30;;;9.98;;
84329;SDS011;74510;42.676;23.432;2024-01-06T10:35:00;16.17;;;9.75;;
84329;SDS011;74510;42.676;23.432;2024-01-06T10:37:29;14.70;;;9.32;;
84329;SDS011;74510;42.676;23.432;2024-01-06T10:40:07;14.80;;;8.73;;
84329;SDS011;74510;42.676;23.432;2024-01-06T10:42:39;16.45;;;9.90;;
84329;SDS011;74510;42.676;23.432;2024-01-06T10:45:07;17.25;;;9.65;;
84329;SDS011;74510;42.676;23.432;2024-01-06T10:47:34;12.85;;;8.73;;
84329;SDS011;74510;42.676;23.432;2024-01-06T10:50:01;18.65;;;12.90;;
84329;SDS011;74510;42.676;23.432;2024-01-06T10:52:27;19.05;;;9.35;;
84329;SDS011;74510;42.676;23.432;2024-01-06T10:54:56;18.63;;;11.05;;
84329;SDS011;74510;42.676;23.432;2024-01-06T10:57:22;17.05;;;11.10;;
84329;SDS011;74510;42.676;23.432;2024-01-06T10:59:51;15.00;;;9.50;;
84329;SDS011;74510;42.676;23.432;2024-01-06T11:02:21;15.10;;;9.45;;
84329;SDS011;74510;42.676;23.432;2024-01-06T11:04:50;18.00;;;9.55;;
84329;SDS011;74510;42.676;23.432;2024-01-06T11:07:16;18.45;;;10.25;;
84329;SDS011;74510;42.676;23.432;2024-01-06T11:10:26;19.50;;;10.65;;
84329;SDS011;74510;42.676;23.432;2024-01-06T11:12:41;21.75;;;10.82;;
84329;SDS011;74510;42.676;23.432;2024-01-06T11:15:07;22.15;;;13.15;;
84329;SDS011;74510;42.676;23.432;2024-01-06T11:20:23;42.55;;;20.88;;
84329;SDS011;74510;42.676;23.432;2024-01-06T11:22:50;36.60;;;20.52;;
84329;SDS011;74510;42.676;23.432;2024-01-06T11:25:16;25.08;;;14.93;;
84329;SDS011;74510;42.676;23.432;2024-01-06T11:27:44;25.13;;;13.25;;
84329;SDS011;74510;42.676;23.432;2024-01-06T11:32:45;18.05;;;12.02;;
84329;SDS011;74510;42.676;23.432;2024-01-06T11:35:12;27.60;;;15.40;;
84329;SDS011;74510;42.676;23.432;2024-01-06T11:40:15;15.55;;;7.57;;
84329;SDS011;74510;42.676;23.432;2024-01-06T11:42:42;13.77;;;7.80;;
84329;SDS011;74510;42.676;23.432;2024-01-06T11:45:08;12.35;;;8.68;;
84329;SDS011;74510;42.676;23.432;2024-01-06T11:47:34;13.95;;;8.82;;
84329;SDS011;74510;42.676;23.432;2024-01-06T11:50:00;13.60;;;9.15;;
84329;SDS011;74510;42.676;23.432;2024-01-06T11:52:32;9.02;;;6.72;;
84329;SDS011;74510;42.676;23.432;2024-01-06T11:54:59;13.73;;;7.93;;
84329;SDS011;74510;42.676;23.432;2024-01-06T11:57:25;13.00;;;6.15;;
84329;SDS011;74510;42.676;23.432;2024-01-06T11:59:51;10.93;;;7.65;;
84329;SDS011;74510;42.676;23.432;2024-01-06T12:02:18;11.80;;;7.32;;
84329;SDS011;74510;42.676;23.432;2024-01-06T12:04:53;11.30;;;7.03;;
84329;SDS011;74510;42.676;23.432;2024-01-06T12:07:19;11.70;;;6.95;;
84329;SDS011;74510;42.676;23.432;2024-01-06T12:09:48;16.00;;;8.55;;
84329;SDS011;74510;42.676;23.432;2024-01-06T12:12:17;16.60;;;10.52;;
84329;SDS011;74510;42.676;23.432;2024-01-06T12:14:43;18.25;;;9.50;;
84329;SDS011;74510;42.676;23.432;2024-01-06T12:17:10;13.30;;;8.32;;
84329;SDS011;74510;42.676;23.432;2024-01-06T12:19:38;15.15;;;11.38;;
84329;SDS011;74510;42.676;23.432;2024-01-06T12:22:04;14.52;;;8.15;;
84329;SDS011;74510;42.676;23.432;2024-01-06T12:24:30;17.30;;;10.38;;
84329;SDS011;74510;42.676;23.432;2024-01-06T12:26:56;13.95;;;9.45;;
84329;SDS011;74510;42.676;23.432;2024-01-06T12:29:22;13.05;;;7.25;;
84329;SDS011;74510;42.676;23.432;2024-01-06T12:31:52;11.15;;;7.53;;
84329;SDS011;74510;42.676;23.432;2024-01-06T12:34:17;11.35;;;6.65;;
84329;SDS011;74510;42.676;23.432;2024-01-06T12:36:43;15.98;;;7.75;;
84329;SDS011;74510;42.676;23.432;2024-01-06T12:39:12;12.45;;;7.50;;
84329;SDS011;74510;42.676;23.432;2024-01-06T12:41:38;10.80;;;6.63;;
84329;SDS011;74510;42.676;23.432;2024-01-06T12:44:06;13.52;;;7.93;;
84329;SDS011;74510;42.676;23.432;2024-01-06T12:46:33;27.00;;;15.13;;
84329;SDS011;74510;42.676;23.432;2024-01-06T12:48:59;21.05;;;13.73;;
84329;SDS011;74510;42.676;23.432;2024-01-06T12:51:24;28.52;;;14.43;;
84329;SDS011;74510;42.676;23.432;2024-01-06T12:53:50;17.23;;;9.35;;
84329;SDS011;74510;42.676;23.432;2024-01-06T12:56:15;11.85;;;6.50;;
84329;SDS011;74510;42.676;23.432;2024-01-06T12:58:41;26.35;;;14.63;;
84329;SDS011;74510;42.676;23.432;2024-01-06T13:01:07;16.30;;;9.55;;
84329;SDS011;74510;42.676;23.432;2024-01-06T13:03:32;10.75;;;6.50;;
84329;SDS011;74510;42.676;23.432;2024-01-06T13:05:59;9.18;;;6.30;;
84329;SDS011;74510;42.676;23.432;2024-01-06T13:08:25;12.82;;;7.97;;
84329;SDS011;74510;42.676;23.432;2024-01-06T13:10:52;14.48;;;7.53;;
84329;SDS011;74510;42.676;23.432;2024-01-06T13:13:18;18.52;;;8.68;;
84329;SDS011;74510;42.676;23.432;2024-01-06T13:15:44;11.50;;;6.53;;
84329;SDS011;74510;42.676;23.432;2024-01-06T13:18:11;13.88;;;7.15;;
84329;SDS011;74510;42.676;23.432;2024-01-06T13:20:37;15.00;;;7.25;;
84329;SDS011;74510;42.676;23.432;2024-01-06T13:23:05;12.43;;;7.28;;
84329;SDS011;74510;42.676;23.432;2024-01-06T13:25:31;10.10;;;5.45;;
84329;SDS011;74510;42.676;23.432;2024-01-06T13:27:57;14.02;;;7.22;;
84329;SDS011;74510;42.676;23.432;2024-01-06T13:30:23;8.48;;;4.68;;
84329;SDS011;74510;42.676;23.432;2024-01-06T13:32:48;9.95;;;6.03;;
84329;SDS011;74510;42.676;23.432;2024-01-06T13:35:15;15.23;;;5.82;;
84329;SDS011;74510;42.676;23.432;2024-01-06T13:37:41;12.93;;;6.55;;
84329;SDS011;74510;42.676;23.432;2024-01-06T13:40:08;11.38;;;5.78;;
84329;SDS011;74510;42.676;23.432;2024-01-06T13:42:34;9.75;;;7.75;;
84329;SDS011;74510;42.676;23.432;2024-01-06T13:45:00;18.23;;;10.32;;
84329;SDS011;74510;42.676;23.432;2024-01-06T13:47:28;14.32;;;7.75;;
84329;SDS011;74510;42.676;23.432;2024-01-06T13:49:55;11.30;;;6.20;;
84329;SDS011;74510;42.676;23.432;2024-01-06T13:52:21;10.38;;;6.13;;
84329;SDS011;74510;42.676;23.432;2024-01-06T13:54:47;11.40;;;5.78;;
84329;SDS011;74510;42.676;23.432;2024-01-06T13:57:12;11.65;;;6.65;;
84329;SDS011;74510;42.676;23.432;2024-01-06T13:59:38;8.65;;;5.85;;
84329;SDS011;74510;42.676;23.432;2024-01-06T14:02:07;10.70;;;6.15;;
84329;SDS011;74510;42.676;23.432;2024-01-06T14:04:33;10.85;;;7.13;;
84329;SDS011;74510;42.676;23.432;2024-01-06T14:06:59;10.25;;;6.30;;
84329;SDS011;74510;42.676;23.432;2024-01-06T14:11:52;7.25;;;5.40;;
84329;SDS011;74510;42.676;23.432;2024-01-06T14:14:19;9.13;;;5.60;;